Time;durP1;ratioP1;P1;durP2;ratioP2;P2;SDS_P1;SDS_P2;PMS_P1;PMS_P2;Temp;Humidity;BMP_temperature;BMP_pressure;BME280_temperature;BME280_humidity;BME280_pressure;Samples;Min_cycle;Max_cycle;Signal;HPM_P1;HPM_P2
2023/10/20 00:01:54;;;;;;;83.50;46.50;;;;;;;-149.70;100.00;76280.06;5014529;28;20042;-67
2023/10/20 00:04:21;;;;;;;81.90;47.85;;;;;;;-149.70;100.00;76284.13;5015368;28;20238;-67
2023/10/20 00:06:48;;;;;;;79.85;47.15;;;;;;;-149.70;100.00;76278.03;5016477;28;20035;-67
2023/10/20 00:09:14;;;;;;;88.32;50.15;;;;;;;-149.70;100.00;76286.16;5016334;28;20042;-67
2023/10/20 00:11:43;;;;;;;82.97;47.45;;;;;;;-149.70;100.00;76288.19;5016416;28;20037;-67
2023/10/20 00:14:09;;;;;;;76.38;46.35;;;;;;;-149.70;100.00;76296.31;5015117;28;20046;-67
2023/10/20 00:16:36;;;;;;;87.68;47.75;;;;;;;-149.70;100.00;76290.22;5015657;28;20034;-67
2023/10/20 00:19:03;;;;;;;79.57;45.08;;;;;;;-149.70;100.00;76288.19;5015990;28;20070;-66
2023/10/20 00:21:29;;;;;;;85.60;46.03;;;;;;;-149.70;100.00;76288.19;5016007;28;20220;-67
2023/10/20 00:23:56;;;;;;;91.00;48.03;;;;;;;-149.70;100.00;76282.09;5015541;28;20065;-67
2023/10/20 00:26:22;;;;;;;90.78;48.65;;;;;;;-149.70;100.00;76286.16;5016302;28;20065;-67
2023/10/20 00:28:49;;;;;;;88.82;47.90;;;;;;;-149.70;100.00;76276.00;5015982;28;20045;-66
2023/10/20 00:31:16;;;;;;;85.32;46.17;;;;;;;-149.70;100.00;76282.09;5016298;28;20034;-67
2023/10/20 00:33:45;;;;;;;86.32;48.47;;;;;;;-149.70;100.00;76290.22;5016240;28;20034;-67
2023/10/20 00:36:12;;;;;;;93.47;50.63;;;;;;;-149.70;100.00;76288.19;5015445;28;20036;-67
2023/10/20 00:38:38;;;;;;;86.63;48.80;;;;;;;-149.70;100.00;76278.03;5014658;28;20054;-67
2023/10/20 00:41:05;;;;;;;86.30;45.92;;;;;;;-149.70;100.00;76278.03;5016079;28;20027;-67
2023/10/20 00:43:37;;;;;;;88.40;50.47;;;;;;;-149.70;100.00;76276.00;5015566;28;20034;-67
2023/10/20 00:46:05;;;;;;;84.32;47.13;;;;;;;-149.70;100.00;76269.88;5015046;28;20022;-67
2023/10/20 00:48:34;;;;;;;84.78;48.60;;;;;;;-149.70;100.00;76265.81;5014967;28;20042;-67
2023/10/20 00:51:01;;;;;;;86.70;46.20;;;;;;;-149.70;100.00;76267.84;5015132;28;20054;-66
2023/10/20 00:53:29;;;;;;;78.55;46.05;;;;;;;-149.70;100.00;76263.78;5015053;28;20034;-67
2023/10/20 00:55:57;;;;;;;86.28;45.70;;;;;;;-149.70;100.00;76259.72;5014626;28;20105;-67
2023/10/20 00:58:25;;;;;;;84.68;48.42;;;;;;;-149.70;100.00;76239.38;5015046;28;20042;-67
2023/10/20 01:00:52;;;;;;;79.00;45.33;;;;;;;-149.70;100.00;76249.56;5015164;28;20069;-67
2023/10/20 01:03:19;;;;;;;76.45;44.72;;;;;;;-149.70;100.00;76257.69;5015250;28;20112;-68
2023/10/20 01:05:47;;;;;;;80.07;44.95;;;;;;;-149.70;100.00;76239.38;5014981;28;20073;-68
2023/10/20 01:08:15;;;;;;;80.53;44.92;;;;;;;-149.70;100.00;76259.72;5014509;28;20085;-68
2023/10/20 01:10:41;;;;;;;73.63;44.13;;;;;;;-149.70;100.00;76261.75;4987600;28;20054;-68
2023/10/20 01:13:08;;;;;;;83.00;46.28;;;;;;;-149.70;100.00;76243.47;5015995;28;20069;-67
2023/10/20 01:15:37;;;;;;;81.85;46.95;;;;;;;-149.70;100.00;76247.53;5017520;28;20051;-67
2023/10/20 01:18:04;;;;;;;78.82;45.28;;;;;;;-149.70;100.00;76263.78;5017534;28;20045;-67
2023/10/20 01:20:31;;;;;;;77.47;44.03;;;;;;;-149.70;100.00;76271.91;5016567;28;20061;-68
2023/10/20 01:22:59;;;;;;;71.00;43.47;;;;;;;-149.70;100.00;76257.69;5015788;28;20054;-67
2023/10/20 01:25:26;;;;;;;75.20;42.70;;;;;;;-149.70;100.00;76253.63;5015211;28;20084;-68
2023/10/20 01:27:53;;;;;;;73.93;42.67;;;;;;;-149.70;100.00;76255.66;5014034;28;20042;-68
2023/10/20 01:30:21;;;;;;;72.55;42.80;;;;;;;-149.70;100.00;76247.53;5012289;28;20058;-67
2023/10/20 01:32:48;;;;;;;74.53;43.60;;;;;;;-149.70;100.00;76247.53;5014030;28;20050;-69
2023/10/20 01:35:15;;;;;;;73.32;42.67;;;;;;;-149.70;100.00;76247.53;5012609;28;20042;-69
2023/10/20 01:37:42;;;;;;;72.57;42.80;;;;;;;-149.70;100.00;76239.38;5017621;28;20061;-67
2023/10/20 01:40:11;;;;;;;77.63;44.70;;;;;;;-149.70;100.00;76235.31;5012567;28;20073;-68
2023/10/20 01:42:39;;;;;;;70.30;40.72;;;;;;;-149.70;100.00;76245.50;5006276;28;20082;-67
2023/10/20 01:45:06;;;;;;;70.90;41.85;;;;;;;-149.70;100.00;76231.25;4998925;28;20048;-66
2023/10/20 01:47:34;;;;;;;67.95;40.20;;;;;;;-149.70;100.00;76227.19;4996887;28;20499;-66
2023/10/20 01:50:02;;;;;;;65.93;39.40;;;;;;;-149.70;100.00;76239.38;5005149;28;20057;-65
2023/10/20 01:52:28;;;;;;;71.93;40.30;;;;;;;-149.70;100.00;76235.31;5003059;28;20050;-65
2023/10/20 01:54:55;;;;;;;70.45;42.22;;;;;;;-149.70;100.00;76231.25;5012934;28;20066;-65
2023/10/20 01:57:22;;;;;;;69.50;41.35;;;;;;;-149.70;100.00;76229.22;5012182;28;20303;-65
2023/10/20 01:59:48;;;;;;;73.13;41.97;;;;;;;-149.70;100.00;76227.19;5015003;28;20050;-66
2023/10/20 02:02:15;;;;;;;65.15;39.55;;;;;;;-149.70;100.00;76229.22;5017722;28;20073;-65
2023/10/20 02:04:42;;;;;;;68.28;42.05;;;;;;;-149.70;100.00;76229.22;5017282;28;20094;-65
2023/10/20 02:07:22;;;;;;;73.50;41.55;;;;;;;-149.70;100.00;76225.16;5019491;28;20030;-66
2023/10/20 02:09:50;;;;;;;69.10;39.10;;;;;;;-149.70;100.00;76225.16;4991511;28;20061;-65
2023/10/20 02:12:16;;;;;;;62.90;37.72;;;;;;;-149.70;100.00;76217.03;5017657;28;20053;-66
2023/10/20 02:14:43;;;;;;;65.57;38.90;;;;;;;-149.70;100.00;76215.00;5017746;28;20069;-65
2023/10/20 02:17:10;;;;;;;61.28;36.88;;;;;;;-149.70;100.00;76223.13;5018721;28;20095;-65
2023/10/20 02:19:37;;;;;;;59.42;35.50;;;;;;;-149.70;100.00;76219.06;5017651;28;20038;-65
2023/10/20 02:22:04;;;;;;;60.55;35.20;;;;;;;-149.70;100.00;76221.09;5016619;28;20030;-65
2023/10/20 02:24:31;;;;;;;57.45;35.08;;;;;;;-149.70;100.00;76212.97;5017485;28;20042;-66
2023/10/20 02:26:58;;;;;;;53.92;31.13;;;;;;;-149.70;100.00;76210.94;5001415;28;20027;-66
2023/10/20 02:29:25;;;;;;;50.15;29.90;;;;;;;-149.70;100.00;76204.81;5017706;28;20097;-66
2023/10/20 02:31:51;;;;;;;49.55;30.52;;;;;;;-149.70;100.00;76202.78;5017499;28;20023;-66
2023/10/20 02:34:18;;;;;;;50.97;32.05;;;;;;;-149.70;100.00;76200.75;5017793;28;20054;-66
2023/10/20 02:36:47;;;;;;;48.85;30.52;;;;;;;-149.70;100.00;76194.66;5017858;28;20147;-66
2023/10/20 02:39:14;;;;;;;51.03;30.10;;;;;;;-149.70;100.00;76190.59;4983227;28;20027;-66
2023/10/20 02:41:40;;;;;;;44.60;27.75;;;;;;;-149.70;100.00;76192.63;4998371;28;20031;-66
2023/10/20 02:44:07;;;;;;;46.63;24.88;;;;;;;-149.70;100.00;76190.59;4997398;28;20053;-65
2023/10/20 02:46:34;;;;;;;41.45;26.02;;;;;;;-149.70;100.00;76188.56;4981443;28;20086;-65
2023/10/20 02:49:00;;;;;;;43.15;26.08;;;;;;;-149.70;100.00;76180.44;4998030;28;20046;-64
2023/10/20 02:51:28;;;;;;;43.75;25.80;;;;;;;-149.70;100.00;76178.41;4998390;28;20058;-66
2023/10/20 02:53:54;;;;;;;37.58;23.13;;;;;;;-149.70;100.00;76196.69;4998151;28;20046;-65
2023/10/20 02:56:23;;;;;;;38.83;24.52;;;;;;;-149.70;100.00;76178.41;4997460;28;20274;-65
2023/10/20 02:58:50;;;;;;;37.40;22.88;;;;;;;-149.70;100.00;76176.38;4998142;28;20027;-66
2023/10/20 03:01:18;;;;;;;37.45;21.80;;;;;;;-149.70;100.00;76188.56;4997393;28;20027;-66
2023/10/20 03:03:45;;;;;;;38.50;22.33;;;;;;;-149.70;100.00;76182.47;4997727;28;20110;-66
2023/10/20 03:06:12;;;;;;;33.15;18.42;;;;;;;-149.70;100.00;76186.53;4997975;28;20055;-66
2023/10/20 03:08:39;;;;;;;32.17;18.67;;;;;;;-149.70;100.00;76182.47;4997961;28;20030;-66
2023/10/20 03:11:07;;;;;;;32.33;18.98;;;;;;;-149.70;100.00;76186.53;4997484;28;20034;-66
2023/10/20 03:13:34;;;;;;;33.17;18.65;;;;;;;-149.70;100.00;76188.56;4997466;28;20031;-66
2023/10/20 03:16:01;;;;;;;33.13;18.83;;;;;;;-149.70;100.00;76192.63;4997536;28;20057;-65
2023/10/20 03:18:28;;;;;;;28.98;17.27;;;;;;;-149.70;100.00;76192.63;4997281;28;20055;-65
2023/10/20 03:21:01;;;;;;;33.40;19.20;;;;;;;-149.70;100.00;76196.69;4996945;28;20022;-64
2023/10/20 03:23:28;;;;;;;27.75;16.70;;;;;;;-149.70;100.00;76182.47;4997157;28;20090;-64
2023/10/20 03:25:55;;;;;;;28.02;18.05;;;;;;;-149.70;100.00;76194.66;4996222;28;20050;-65
2023/10/20 03:28:22;;;;;;;30.20;16.80;;;;;;;-149.70;100.00;76198.72;4997030;28;20043;-65
2023/10/20 03:30:50;;;;;;;26.10;16.55;;;;;;;-149.70;100.00;76194.66;4979338;28;20070;-66
2023/10/20 03:33:18;;;;;;;29.10;16.40;;;;;;;-149.70;100.00;76182.47;4996333;28;20043;-66
2023/10/20 03:35:45;;;;;;;27.58;16.20;;;;;;;-149.70;100.00;76178.41;4996382;28;20057;-65
2023/10/20 03:38:12;;;;;;;27.85;16.67;;;;;;;-149.70;100.00;76174.31;5007941;28;20030;-66
2023/10/20 03:40:44;;;;;;;33.65;17.48;;;;;;;-149.70;100.00;76170.25;5016497;28;20026;-66
2023/10/20 03:43:11;;;;;;;26.98;16.85;;;;;;;-149.70;100.00;76182.47;5016543;28;20038;-67
2023/10/20 03:45:42;;;;;;;30.27;18.13;;;;;;;-149.70;100.00;76182.47;5016490;28;20030;-67
2023/10/20 03:48:09;;;;;;;27.80;17.77;;;;;;;-149.70;100.00;76204.81;5016647;28;20057;-67
2023/10/20 03:50:41;;;;;;;27.98;16.40;;;;;;;-149.70;100.00;76194.66;5016171;28;20061;-67
2023/10/20 03:53:11;;;;;;;;;;;;;;;-149.70;100.00;76188.56;5016659;28;20030;-67
2023/10/20 03:55:38;;;;;;;29.25;17.40;;;;;;;-149.70;100.00;76182.47;5015892;28;19925;-67
2023/10/20 03:58:04;;;;;;;31.67;18.08;;;;;;;-149.70;100.00;76178.41;5016464;28;20041;-66
2023/10/20 04:00:31;;;;;;;29.20;17.98;;;;;;;-149.70;100.00;76184.50;5016328;28;20054;-67
2023/10/20 04:02:58;;;;;;;33.08;18.35;;;;;;;-149.70;100.00;76174.31;5016571;28;20030;-67
2023/10/20 04:05:26;;;;;;;31.95;18.13;;;;;;;-149.70;100.00;76174.31;5016198;28;20030;-67
2023/10/20 04:07:53;;;;;;;30.08;18.33;;;;;;;-149.70;100.00;76174.31;5016402;28;20026;-67
2023/10/20 04:10:20;;;;;;;32.17;19.92;;;;;;;-149.70;100.00;76162.13;5015820;28;20038;-66
2023/10/20 04:12:47;;;;;;;33.95;18.27;;;;;;;-149.70;100.00;76170.25;5015421;28;20033;-67
2023/10/20 04:15:19;;;;;;;29.48;18.77;;;;;;;-149.70;100.00;76170.25;5016032;28;20030;-67
2023/10/20 04:17:56;;;;;;;34.47;19.90;;;;;;;-149.70;100.00;76164.16;5015712;28;20053;-66
2023/10/20 04:20:23;;;;;;;33.08;19.63;;;;;;;-149.70;100.00;76162.13;5015576;28;20037;-66
2023/10/20 04:22:51;;;;;;;33.63;20.55;;;;;;;-149.70;100.00;76158.06;5016042;28;20054;-67
2023/10/20 04:25:22;;;;;;;32.90;19.95;;;;;;;-149.70;100.00;76170.25;5016162;28;20046;-68
2023/10/20 04:27:50;;;;;;;37.70;21.13;;;;;;;-149.70;100.00;76174.31;5014926;28;20090;-66
2023/10/20 04:52:19;;;;;;;28.25;17.58;;;;;;;-149.70;100.00;76190.59;5014387;28;20026;-67
2023/10/20 05:05:39;;;;;;;29.50;18.17;;;;;;;-149.70;100.00;76186.53;5013306;28;20037;-68
2023/10/20 05:13:22;;;;;;;33.83;20.95;;;;;;;-149.70;100.00;76192.63;5796115;22;1478381;-68
2023/10/20 05:15:48;;;;;;;36.67;20.85;;;;;;;-149.70;100.00;76192.63;4976410;28;20051;-68
2023/10/20 05:18:15;;;;;;;32.40;19.73;;;;;;;-149.70;100.00;76188.56;4975024;28;20031;-69
2023/10/20 05:20:43;;;;;;;35.65;21.85;;;;;;;-149.70;100.00;76182.47;4975959;28;20037;-69
2023/10/20 05:23:10;;;;;;;34.17;19.90;;;;;;;-149.70;100.00;76206.84;4975350;28;20047;-69
2023/10/20 05:25:45;;;;;;;36.83;22.20;;;;;;;-149.70;100.00;76198.72;4975750;28;20031;-69
2023/10/20 05:28:11;;;;;;;41.15;23.05;;;;;;;-149.70;100.00;76196.69;4975719;28;20035;-68
2023/10/20 05:36:01;;;;;;;43.20;23.67;;;;;;;-149.70;100.00;76206.84;5848041;23;20033;-66
2023/10/20 05:38:28;;;;;;;39.60;23.48;;;;;;;-149.70;100.00;76215.00;4970858;28;20055;-67
2023/10/20 05:40:59;;;;;;;37.58;22.38;;;;;;;-149.70;100.00;76215.00;4995203;28;20070;-68
2023/10/20 05:43:26;;;;;;;40.97;23.88;;;;;;;-149.70;100.00;76215.00;4987247;28;20034;-67
2023/10/20 05:45:53;;;;;;;44.47;24.73;;;;;;;-149.70;100.00;76208.91;4995385;28;20095;-68
2023/10/20 05:48:19;;;;;;;40.60;24.85;;;;;;;-149.70;100.00;76206.84;4994129;28;20053;-67
2023/10/20 05:50:46;;;;;;;38.53;24.38;;;;;;;-149.70;100.00;76198.72;4995427;28;20023;-68
2023/10/20 05:53:14;;;;;;;40.65;24.33;;;;;;;-149.70;100.00;76206.84;4994921;28;20049;-68
2023/10/20 05:55:41;;;;;;;46.47;26.30;;;;;;;-149.70;100.00;76196.69;4994302;28;20031;-67
2023/10/20 05:58:08;;;;;;;44.67;28.15;;;;;;;-149.70;100.00;76202.78;4994154;28;20039;-68
2023/10/20 06:00:35;;;;;;;46.67;25.95;;;;;;;-149.70;100.00;76208.91;4981278;28;20045;-68
2023/10/20 06:03:21;;;;;;;44.67;27.00;;;;;;;-149.70;100.00;76194.66;4997811;28;20094;-67
2023/10/20 06:05:49;;;;;;;49.22;27.77;;;;;;;-149.70;100.00;76204.81;4997971;28;20034;-67
2023/10/20 06:08:16;;;;;;;42.35;25.17;;;;;;;-149.70;100.00;76196.69;4998566;28;20035;-66
2023/10/20 06:10:44;;;;;;;44.20;27.40;;;;;;;-149.70;100.00;76190.59;4998709;28;20035;-68
2023/10/20 06:13:11;;;;;;;45.33;26.60;;;;;;;-149.70;100.00;76196.69;4997993;28;20046;-68
2023/10/20 06:15:37;;;;;;;47.63;26.70;;;;;;;-149.70;100.00;76196.69;4996931;28;20034;-67
2023/10/20 06:18:04;;;;;;;38.78;24.70;;;;;;;-149.70;100.00;76196.69;4997461;28;20066;-68
2023/10/20 06:20:31;;;;;;;55.13;29.33;;;;;;;-149.70;100.00;76192.63;4997919;28;20045;-68
2023/10/20 06:22:58;;;;;;;48.38;27.70;;;;;;;-149.70;100.00;76198.72;4997145;28;20109;-67
2023/10/20 06:25:25;;;;;;;55.88;28.63;;;;;;;-149.70;100.00;76208.91;4996945;28;20034;-66
2023/10/20 06:27:51;;;;;;;53.40;29.65;;;;;;;-149.70;100.00;76202.78;4996650;28;20167;-68
2023/10/20 06:30:24;;;;;;;46.33;27.08;;;;;;;-149.70;100.00;76210.94;4995293;28;20049;-68
2023/10/20 06:32:56;;;;;;;48.65;27.10;;;;;;;-149.70;100.00;76219.06;4997337;28;20053;-68
2023/10/20 06:35:32;;;;;;;46.88;28.17;;;;;;;-149.70;100.00;76208.91;4993535;28;20059;-67
2023/10/20 06:40:35;;;;;;;46.45;27.83;;;;;;;-149.70;100.00;76202.78;4997333;28;20078;-69
2023/10/20 06:43:02;;;;;;;54.67;29.02;;;;;;;-149.70;100.00;76192.63;4997806;28;20035;-67
2023/10/20 06:45:29;;;;;;;44.80;25.10;;;;;;;-149.70;100.00;76194.66;4997902;28;20034;-67
2023/10/20 06:47:57;;;;;;;50.13;25.95;;;;;;;-149.70;100.00;76194.66;4997894;28;20035;-68
2023/10/20 06:50:24;;;;;;;47.25;22.45;;;;;;;-149.70;100.00;76194.66;4997385;28;20043;-69
2023/10/20 06:52:53;;;;;;;49.97;27.35;;;;;;;-149.70;100.00;76182.47;4981608;28;20052;-67
2023/10/20 06:55:19;;;;;;;50.08;27.35;;;;;;;-149.70;100.00;76176.38;4981215;28;20038;-67
2023/10/20 06:57:48;;;;;;;47.60;28.90;;;;;;;-149.70;100.00;76176.38;4998526;28;20039;-66
2023/10/20 07:00:20;;;;;;;42.88;26.20;;;;;;;-149.70;100.00;76192.63;4997194;28;20031;-67
2023/10/20 07:02:48;;;;;;;51.55;27.17;;;;;;;-149.70;100.00;76172.28;4997493;28;20050;-67
2023/10/20 07:05:17;;;;;;;42.65;23.02;;;;;;;-149.70;100.00;76176.38;4998076;28;20098;-67
2023/10/20 07:07:44;;;;;;;45.35;23.60;;;;;;;-149.70;100.00;76180.44;4997189;28;20031;-68
2023/10/20 07:10:10;;;;;;;43.75;26.65;;;;;;;-149.70;100.00;76170.25;4996323;28;20062;-68
2023/10/20 07:12:38;;;;;;;37.33;23.58;;;;;;;-149.70;100.00;76174.31;4997051;28;20031;-66
2023/10/20 07:15:05;;;;;;;37.40;22.75;;;;;;;-149.70;100.00;76170.25;4996062;28;20085;-68
2023/10/20 07:17:32;;;;;;;38.20;20.63;;;;;;;-149.70;100.00;76174.31;4996447;28;20045;-68
2023/10/20 07:19:59;;;;;;;42.38;22.35;;;;;;;-149.70;100.00;76170.25;4996717;28;20026;-68
2023/10/20 07:22:28;;;;;;;43.85;22.10;;;;;;;-149.70;100.00;76156.03;4996173;28;20050;-68
2023/10/20 07:24:57;;;;;;;39.13;20.20;;;;;;;-149.70;100.00;76151.97;4997168;28;20087;-67
2023/10/20 07:27:25;;;;;;;39.30;21.55;;;;;;;-149.70;100.00;76158.06;4995878;28;20073;-67
2023/10/20 07:29:51;;;;;;;42.65;22.10;;;;;;;-149.70;100.00;76162.13;4996489;28;20031;-67
2023/10/20 07:32:18;;;;;;;44.45;21.55;;;;;;;-149.70;100.00;76160.09;4996443;28;20066;-68
2023/10/20 07:34:44;;;;;;;36.20;21.33;;;;;;;-149.70;100.00;76162.13;4996715;28;20035;-69
2023/10/20 07:37:11;;;;;;;42.00;22.85;;;;;;;-149.70;100.00;76174.31;4995748;28;20027;-69
2023/10/20 07:39:38;;;;;;;39.30;21.60;;;;;;;-149.70;100.00;76162.13;4995592;28;20027;-69
2023/10/20 07:42:05;;;;;;;36.50;22.48;;;;;;;-149.70;100.00;76162.13;4994792;28;20043;-68
2023/10/20 07:44:32;;;;;;;37.63;21.80;;;;;;;-149.70;100.00;76154.00;4994890;28;20059;-70
2023/10/20 07:47:00;;;;;;;39.30;23.17;;;;;;;-149.70;100.00;76168.22;4996019;28;20031;-70
2023/10/20 07:49:26;;;;;;;41.20;22.45;;;;;;;-149.70;100.00;76154.00;4994883;28;20055;-69
2023/10/20 07:51:53;;;;;;;38.88;21.52;;;;;;;-149.70;100.00;76164.16;4993492;28;20046;-70
2023/10/20 07:54:20;;;;;;;46.60;24.75;;;;;;;-149.70;100.00;76174.31;4992389;28;20529;-68
2023/10/20 07:56:47;;;;;;;43.95;24.55;;;;;;;-149.70;100.00;76158.06;4986774;28;20043;-69
2023/10/20 07:59:14;;;;;;;40.67;22.65;;;;;;;-149.70;100.00;76166.19;4983644;28;20035;-69
2023/10/20 08:01:41;;;;;;;43.28;23.85;;;;;;;-149.70;100.00;76147.91;4988391;28;20047;-69
2023/10/20 08:04:07;;;;;;;37.35;23.10;;;;;;;-149.70;100.00;76143.84;4980989;28;20404;-68
2023/10/20 08:06:34;;;;;;;42.70;23.50;;;;;;;-149.70;100.00;76145.88;4979211;28;20051;-68
2023/10/20 08:09:02;;;;;;;40.47;21.48;;;;;;;-149.70;100.00;76147.91;4980925;28;20538;-68
2023/10/20 08:11:29;;;;;;;43.45;22.05;;;;;;;-149.70;100.00;76137.72;4981445;28;20055;-69
2023/10/20 08:13:57;;;;;;;38.20;22.38;;;;;;;-149.70;100.00;76141.78;4988318;28;20050;-69
2023/10/20 08:16:24;;;;;;;38.10;23.95;;;;;;;-149.70;100.00;76137.72;4988675;28;20419;-68
2023/10/20 08:18:51;;;;;;;39.65;23.60;;;;;;;-149.70;100.00;76145.88;4990292;28;20046;-69
2023/10/20 08:21:19;;;;;;;41.47;23.55;;;;;;;-149.70;100.00;76149.94;4973473;28;20050;-68
2023/10/20 08:23:46;;;;;;;38.13;22.63;;;;;;;-149.70;100.00;76149.94;4989805;28;20486;-67
2023/10/20 08:26:19;;;;;;;38.38;21.80;;;;;;;-149.70;100.00;76149.94;4990204;28;20049;-68
2023/10/20 08:28:46;;;;;;;37.92;22.95;;;;;;;-149.70;100.00;76158.06;4985930;28;20053;-68
2023/10/20 08:31:13;;;;;;;36.53;22.30;;;;;;;-149.70;100.00;76156.03;4991081;28;20106;-67
2023/10/20 08:33:41;;;;;;;35.85;21.38;;;;;;;-149.70;100.00;76158.06;4971785;28;20179;-69
2023/10/20 08:36:15;;;;;;;38.20;22.27;;;;;;;-149.70;100.00;76170.25;4987508;28;20127;-71
2023/10/20 08:38:43;;;;;;;40.92;21.08;;;;;;;-149.70;100.00;76182.47;4986653;28;20077;-68
2023/10/20 08:41:16;;;;;;;33.08;20.20;;;;;;;-149.70;100.00;76182.47;4987905;28;20046;-67
2023/10/20 08:43:44;;;;;;;36.83;21.35;;;;;;;-149.70;100.00;76182.47;4990351;28;20042;-69
2023/10/20 08:46:13;;;;;;;36.58;20.45;;;;;;;-149.70;100.00;76180.44;4992541;28;20039;-68
2023/10/20 08:48:41;;;;;;;28.27;16.40;;;;;;;-149.70;100.00;76176.38;4994255;28;20054;-69
2023/10/20 08:51:10;;;;;;;35.08;22.00;;;;;;;-149.70;100.00;76166.19;4991822;28;20050;-67
2023/10/20 08:53:38;;;;;;;38.78;20.20;;;;;;;-149.70;100.00;76164.16;4992027;28;20043;-67
2023/10/20 08:56:09;;;;;;;38.55;20.17;;;;;;;-149.70;100.00;76166.19;4990873;28;20103;-69
2023/10/20 08:58:36;;;;;;;33.53;21.35;;;;;;;-149.70;100.00;76170.25;4993798;28;20964;-67
2023/10/20 09:01:04;;;;;;;28.00;16.98;;;;;;;-149.70;100.00;76174.31;4975225;28;20034;-67
2023/10/20 09:04:00;;;;;;;31.48;19.40;;;;;;;-149.70;100.00;76164.16;4993417;28;20061;-66
2023/10/20 09:06:27;;;;;;;33.03;19.13;;;;;;;-149.70;100.00;76172.28;4974489;28;20039;-67
2023/10/20 09:08:55;;;;;;;36.67;18.52;;;;;;;-149.70;100.00;76182.47;4995137;28;20034;-67
2023/10/20 09:11:30;;;;;;;36.05;21.10;;;;;;;-149.70;100.00;76164.16;4995369;28;20035;-67
2023/10/20 09:13:59;;;;;;;36.33;20.27;;;;;;;-149.70;100.00;76156.03;4995010;28;20030;-67
2023/10/20 09:16:27;;;;;;;31.13;19.30;;;;;;;-149.70;100.00;76166.19;4978525;28;20069;-66
2023/10/20 09:18:54;;;;;;;36.72;21.20;;;;;;;-149.70;100.00;76154.00;4995247;28;20030;-66
2023/10/20 09:21:28;;;;;;;35.95;21.27;;;;;;;-149.70;100.00;76158.06;4995621;28;20057;-67
2023/10/20 09:23:57;;;;;;;30.73;18.00;;;;;;;-149.70;100.00;76158.06;4994528;28;20045;-67
2023/10/20 09:26:30;;;;;;;34.28;18.40;;;;;;;-149.70;100.00;76151.97;4994533;28;20038;-66
2023/10/20 09:28:57;;;;;;;37.30;19.73;;;;;;;-149.70;100.00;76145.88;4994378;28;20049;-68
2023/10/20 09:31:27;;;;;;;34.13;18.15;;;;;;;-149.70;100.00;76154.00;4995541;28;20046;-68
2023/10/20 09:33:54;;;;;;;34.92;18.75;;;;;;;-149.70;100.00;76151.97;4979759;28;20039;-68
2023/10/20 09:36:23;;;;;;;31.42;17.95;;;;;;;-149.70;100.00;76151.97;4998244;28;20066;-67
2023/10/20 09:38:52;;;;;;;31.40;18.52;;;;;;;-149.70;100.00;76133.66;4998958;28;20031;-67
2023/10/20 09:41:27;;;;;;;32.17;16.92;;;;;;;-149.70;100.00;76139.75;4998880;28;20043;-67
2023/10/20 09:44:07;;;;;;;30.33;17.73;;;;;;;-149.70;100.00;76137.72;4998881;28;20066;-67
2023/10/20 09:46:54;;;;;;;25.03;15.23;;;;;;;-149.70;100.00;76139.75;4998980;28;20062;-67
2023/10/20 09:49:24;;;;;;;25.35;15.27;;;;;;;-149.70;100.00;76135.69;4998374;28;20046;-66
2023/10/20 09:51:52;;;;;;;25.08;16.33;;;;;;;-149.70;100.00;76117.41;4999073;28;20110;-67
2023/10/20 09:54:29;;;;;;;25.65;15.02;;;;;;;-149.70;100.00;76125.53;4999252;28;20116;-67
2023/10/20 09:57:00;;;;;;;28.17;15.65;;;;;;;-149.70;100.00;76113.34;4999118;28;20054;-67
2023/10/20 09:59:27;;;;;;;32.55;15.77;;;;;;;-149.70;100.00;76115.38;4998414;28;20041;-67
2023/10/20 10:01:59;;;;;;;29.67;17.73;;;;;;;-149.70;100.00;76119.44;4999343;28;20037;-68
2023/10/20 10:04:39;;;;;;;;;;;;;;;-149.70;100.00;76117.41;4999764;28;20054;-67
2023/10/20 10:07:08;;;;;;;28.83;16.35;;;;;;;-149.70;100.00;76123.50;4998230;28;19922;-68
2023/10/20 10:09:36;;;;;;;22.75;13.85;;;;;;;-149.70;100.00;76119.44;4998915;28;20030;-67
2023/10/20 10:12:11;;;;;;;28.17;14.80;;;;;;;-149.70;100.00;76129.59;4999052;28;20038;-69
2023/10/20 10:14:38;;;;;;;27.25;15.38;;;;;;;-149.70;100.00;76125.53;4998214;28;20035;-68
2023/10/20 10:17:08;;;;;;;19.77;12.80;;;;;;;-149.70;100.00;76125.53;4998550;28;20035;-68
2023/10/20 10:19:45;;;;;;;22.77;13.70;;;;;;;-149.70;100.00;76121.47;4998927;28;20042;-67
2023/10/20 10:22:15;;;;;;;22.50;13.95;;;;;;;-149.70;100.00;76105.19;4999199;28;20283;-68
2023/10/20 10:24:50;;;;;;;25.83;14.90;;;;;;;-149.70;100.00;76101.13;4997816;28;20053;-67
2023/10/20 10:27:19;;;;;;;24.67;14.57;;;;;;;-149.70;100.00;76115.38;4994538;28;20070;-67
2023/10/20 10:29:59;;;;;;;25.02;15.00;;;;;;;-149.70;100.00;76101.13;4995074;28;20109;-67
2023/10/20 10:32:33;;;;;;;25.15;12.82;;;;;;;-149.70;100.00;76101.13;4977566;28;20077;-68
2023/10/20 10:35:03;;;;;;;23.23;13.52;;;;;;;-149.70;100.00;76115.38;4993998;28;20057;-67
2023/10/20 10:37:36;;;;;;;21.67;13.20;;;;;;;-149.70;100.00;76105.19;4995615;28;20050;-67
2023/10/20 10:40:14;;;;;;;23.73;12.80;;;;;;;-149.70;100.00;76109.28;4993162;28;20062;-67
2023/10/20 10:42:49;;;;;;;21.77;13.40;;;;;;;-149.70;100.00;76105.19;4994718;28;20053;-66
2023/10/20 10:45:24;;;;;;;19.08;11.00;;;;;;;-149.70;100.00;76113.34;4995069;28;20053;-67
2023/10/20 10:48:02;;;;;;;21.38;12.05;;;;;;;-149.70;100.00;76109.28;4994532;28;20038;-67
2023/10/20 10:50:30;;;;;;;21.52;12.88;;;;;;;-149.70;100.00;76088.94;4997244;28;20035;-67
2023/10/20 10:52:59;;;;;;;21.15;12.35;;;;;;;-149.70;100.00;76088.94;4997006;28;20037;-68
2023/10/20 10:55:26;;;;;;;23.52;12.20;;;;;;;-149.70;100.00;76084.88;4997685;28;20070;-68
2023/10/20 10:57:53;;;;;;;17.80;11.32;;;;;;;-149.70;100.00;76093.00;4998152;28;20041;-68
2023/10/20 11:00:21;;;;;;;22.05;11.80;;;;;;;-149.70;100.00;76086.91;4981625;28;20063;-67
2023/10/20 11:02:49;;;;;;;16.15;11.15;;;;;;;-149.70;100.00;76097.06;4997630;28;20031;-67
2023/10/20 11:05:17;;;;;;;18.77;10.93;;;;;;;-149.70;100.00;76093.00;4998157;28;20035;-67
2023/10/20 11:08:02;;;;;;;19.10;11.70;;;;;;;-149.70;100.00;76105.19;4998784;28;20062;-69
2023/10/20 11:10:37;;;;;;;17.90;10.00;;;;;;;-149.70;100.00;76115.38;4997048;28;20026;-69
2023/10/20 11:13:06;;;;;;;21.58;11.52;;;;;;;-149.70;100.00;76107.22;4979507;28;20022;-68
2023/10/20 11:15:33;;;;;;;18.50;10.93;;;;;;;-149.70;100.00;76105.19;4997351;28;20059;-68
2023/10/20 11:18:01;;;;;;;14.48;9.40;;;;;;;-149.70;100.00;76111.31;4997241;28;20030;-69
2023/10/20 11:20:32;;;;;;;18.90;11.50;;;;;;;-149.70;100.00;76101.13;4995570;28;20031;-68
2023/10/20 11:23:00;;;;;;;21.43;11.17;;;;;;;-149.70;100.00;76101.13;4996591;28;20050;-68
2023/10/20 11:25:28;;;;;;;36.22;12.35;;;;;;;-149.70;100.00;76109.28;4996439;28;20278;-68
2023/10/20 11:27:56;;;;;;;21.77;10.88;;;;;;;-149.70;100.00;76113.34;4997232;28;20043;-67
2023/10/20 11:30:31;;;;;;;16.52;10.73;;;;;;;-149.70;100.00;76105.19;4997228;28;20062;-68
2023/10/20 11:32:58;;;;;;;19.75;10.68;;;;;;;-149.70;100.00;76101.13;4996866;28;20026;-68
2023/10/20 11:35:25;;;;;;;17.10;10.18;;;;;;;-149.70;100.00;76105.19;4989111;28;20037;-68
2023/10/20 11:37:57;;;;;;;18.15;10.45;;;;;;;-149.70;100.00;76105.19;4996527;28;20047;-67
2023/10/20 11:40:28;;;;;;;21.98;10.48;;;;;;;-149.70;100.00;76109.28;4996101;28;20042;-67
2023/10/20 11:42:55;;;;;;;17.65;10.48;;;;;;;-149.70;100.00;76097.06;4995991;28;20035;-68
2023/10/20 11:45:22;;;;;;;16.08;9.57;;;;;;;-149.70;100.00;76111.31;4996476;28;20038;-68
2023/10/20 11:47:49;;;;;;;17.73;10.30;;;;;;;-149.70;100.00;76105.19;4996833;28;20042;-68